Time,TemperatureF,DewpointF,PressureIn,WindDirection,WindDirectionDegrees,WindSpeedMPH,WindSpeedGustMPH,Humidity,HourlyPrecipIn,Conditions,Clouds,dailyrainin,SoftwareType,DateUTC
2013-08-06 00:01:00,52.6,49.2,0.00,NNW,328,1.8,3.1,88,0.00,,,0.00,WUHU216CR1000,2013-08-06 07:01:00,
2013-08-06 00:06:00,52.6,49.2,0.00,NNW,328,1.8,3.1,88,0.00,,,0.00,WUHU216CR1000,2013-08-06 07:06:00,
2013-08-06 00:11:00,52.6,49.2,0.00,NNW,328,1.8,3.1,88,0.00,,,0.00,WUHU216CR1000,2013-08-06 07:11:00,
2013-08-06 00:16:00,52.7,49.2,0.00,NW,326,1.7,3.1,88,0.00,,,0.00,WUHU216CR1000,2013-08-06 07:16:00,
2013-08-06 00:21:00,52.7,49.2,0.00,NW,326,1.7,3.1,88,0.00,,,0.00,WUHU216CR1000,2013-08-06 07:21:00,
2013-08-06 00:26:00,52.7,49.2,0.00,NW,326,1.7,3.1,88,0.00,,,0.00,WUHU216CR1000,2013-08-06 07:26:00,
2013-08-06 00:31:00,52.8,49.2,0.00,NW,310,1.9,4.4,87,0.00,,,0.00,WUHU216CR1000,2013-08-06 07:31:00,
2013-08-06 00:36:00,52.8,49.2,0.00,NW,310,1.9,4.4,87,0.00,,,0.00,WUHU216CR1000,2013-08-06 07:36:00,
2013-08-06 00:41:00,52.8,49.2,0.00,NW,310,1.9,4.4,87,0.00,,,0.00,WUHU216CR1000,2013-08-06 07:41:00,
2013-08-06 00:46:00,52.8,49.2,0.00,WNW,292,1.7,4.8,87,0.00,,,0.00,WUHU216CR1000,2013-08-06 07:46:00,
2013-08-06 00:51:00,52.8,49.2,0.00,WNW,292,1.7,4.8,87,0.00,,,0.00,WUHU216CR1000,2013-08-06 07:51:00,
2013-08-06 00:56:00,52.8,49.2,0.00,WNW,292,1.7,4.8,87,0.00,,,0.00,WUHU216CR1000,2013-08-06 07:56:00,
2013-08-06 01:01:00,52.8,49.2,0.00,WNW,300,2.0,4.8,88,0.00,,,0.00,WUHU216CR1000,2013-08-06 08:01:00,
2013-08-06 01:06:00,52.8,49.2,0.00,WNW,300,2.0,4.2,88,0.00,,,0.00,WUHU216CR1000,2013-08-06 08:06:00,
2013-08-06 01:11:00,52.8,49.2,0.00,WNW,300,2.0,4.2,88,0.00,,,0.00,WUHU216CR1000,2013-08-06 08:11:00,
2013-08-06 01:24:00,52.8,49.2,0.00,WNW,300,2.0,4.2,88,0.00,,,0.00,WUHU216CR1000,2013-08-06 08:24:00,
2013-08-06 01:29:00,52.8,49.2,0.00,WNW,300,2.0,4.2,88,0.00,,,0.00,WUHU216CR1000,2013-08-06 08:29:00,
2013-08-06 01:34:00,52.9,49.4,0.00,NW,308,1.1,4.2,88,0.00,,,0.00,WUHU216CR1000,2013-08-06 08:34:00,
2013-08-06 01:39:00,52.9,49.4,0.00,NW,308,1.1,3.7,88,0.00,,,0.00,WUHU216CR1000,2013-08-06 08:39:00,
2013-08-06 01:44:00,52.9,49.4,0.00,NW,308,1.1,3.7,88,0.00,,,0.00,WUHU216CR1000,2013-08-06 08:44:00,
2013-08-06 01:49:00,53.1,49.7,0.00,West,268,0.8,3.7,88,0.00,,,0.00,WUHU216CR1000,2013-08-06 08:49:00,
2013-08-06 01:54:00,53.1,49.7,0.00,West,268,0.8,2.9,88,0.00,,,0.00,WUHU216CR1000,2013-08-06 08:54:00,
2013-08-06 01:59:00,53.1,49.7,0.00,West,268,0.8,2.9,88,0.00,,,0.00,WUHU216CR1000,2013-08-06 08:59:00,
2013-08-06 02:04:00,53.2,49.7,0.00,South,178,0.6,2.9,88,0.00,,,0.00,WUHU216CR1000,2013-08-06 09:04:00,
2013-08-06 02:09:00,53.2,49.7,0.00,South,178,0.6,2.0,88,0.00,,,0.00,WUHU216CR1000,2013-08-06 09:09:00,
2013-08-06 02:14:00,53.2,49.7,0.00,South,178,0.6,2.0,88,0.00,,,0.00,WUHU216CR1000,2013-08-06 09:14:00,
2013-08-06 02:19:00,53.1,49.8,0.00,ENE,63,0.3,2.0,89,0.00,,,0.00,WUHU216CR1000,2013-08-06 09:19:00,
2013-08-06 02:24:00,53.1,49.8,0.00,ENE,63,0.3,1.5,89,0.00,,,0.00,WUHU216CR1000,2013-08-06 09:24:00,
2013-08-06 02:29:00,53.1,49.8,0.00,ENE,63,0.3,1.5,89,0.00,,,0.00,WUHU216CR1000,2013-08-06 09:29:00,
2013-08-06 02:34:00,53.1,49.8,0.00,NNW,339,1.5,3.5,89,0.00,,,0.00,WUHU216CR1000,2013-08-06 09:34:00,
2013-08-06 02:39:00,53.1,49.8,0.00,NNW,339,1.5,3.5,89,0.00,,,0.00,WUHU216CR1000,2013-08-06 09:39:00,
2013-08-06 02:44:00,53.1,49.8,0.00,NNW,339,1.5,3.5,89,0.00,,,0.00,WUHU216CR1000,2013-08-06 09:44:00,
2013-08-06 02:49:00,53.0,49.8,0.00,WNW,285,0.2,3.5,89,0.00,,,0.00,WUHU216CR1000,2013-08-06 09:49:00,
2013-08-06 02:54:00,53.0,49.8,0.00,WNW,285,0.2,1.8,89,0.00,,,0.00,WUHU216CR1000,2013-08-06 09:54:00,
2013-08-06 02:55:00,53.0,49.8,0.00,WNW,285,0.2,1.8,89,0.00,,,0.00,WUHU216CR1000,2013-08-06 09:55:00,
2013-08-06 03:00:00,53.0,49.8,0.00,WNW,285,0.2,1.8,89,0.00,,,0.00,WUHU216CR1000,2013-08-06 10:00:00,
2013-08-06 03:05:00,53.1,50.0,0.00,North,1,1.1,2.6,89,0.00,,,0.00,WUHU216CR1000,2013-08-06 10:05:00,
2013-08-06 03:10:00,53.1,50.0,0.00,North,1,1.1,2.6,89,0.00,,,0.00,WUHU216CR1000,2013-08-06 10:10:00,
2013-08-06 03:15:00,53.1,50.0,0.00,North,1,1.1,2.6,89,0.00,,,0.00,WUHU216CR1000,2013-08-06 10:15:00,
2013-08-06 03:20:00,53.0,49.9,0.00,ENE,70,0.8,3.7,89,0.00,,,0.00,WUHU216CR1000,2013-08-06 10:20:00,
2013-08-06 03:25:00,53.0,49.9,0.00,ENE,70,0.8,3.7,89,0.00,,,0.00,WUHU216CR1000,2013-08-06 10:25:00,
2013-08-06 03:30:00,53.0,49.9,0.00,ENE,70,0.8,3.7,89,0.00,,,0.00,WUHU216CR1000,2013-08-06 10:30:00,
2013-08-06 03:35:00,52.7,49.8,0.00,ESE,110,1.0,3.7,90,0.00,,,0.00,WUHU216CR1000,2013-08-06 10:35:00,
2013-08-06 03:40:00,52.7,49.8,0.00,ESE,110,1.0,2.9,90,0.00,,,0.00,WUHU216CR1000,2013-08-06 10:40:00,
2013-08-06 03:45:00,52.7,49.8,0.00,ESE,110,1.0,2.9,90,0.00,,,0.00,WUHU216CR1000,2013-08-06 10:45:00,
2013-08-06 03:50:00,52.9,50.1,0.00,NNE,24,0.6,2.9,90,0.00,,,0.00,WUHU216CR1000,2013-08-06 10:50:00,
2013-08-06 03:55:00,52.9,50.1,0.00,NNE,24,0.6,1.8,90,0.00,,,0.00,WUHU216CR1000,2013-08-06 10:55:00,
2013-08-06 04:00:00,52.9,50.1,0.00,NNE,24,0.6,1.8,90,0.00,,,0.00,WUHU216CR1000,2013-08-06 11:00:00,
2013-08-06 04:05:00,53.0,50.2,0.00,WNW,291,1.0,2.2,90,0.00,,,0.00,WUHU216CR1000,2013-08-06 11:05:00,
2013-08-06 04:10:00,53.0,50.2,0.00,WNW,291,1.0,2.2,90,0.00,,,0.00,WUHU216CR1000,2013-08-06 11:10:00,
2013-08-06 04:15:00,53.0,50.2,0.00,WNW,291,1.0,2.2,90,0.00,,,0.00,WUHU216CR1000,2013-08-06 11:15:00,
2013-08-06 04:20:00,53.2,50.3,0.00,West,263,1.0,3.1,90,0.00,,,0.00,WUHU216CR1000,2013-08-06 11:20:00,
2013-08-06 04:25:00,53.2,50.3,0.00,West,263,1.0,3.1,90,0.00,,,0.00,WUHU216CR1000,2013-08-06 11:25:00,
2013-08-06 04:30:00,53.2,50.3,0.00,West,263,1.0,3.1,90,0.00,,,0.00,WUHU216CR1000,2013-08-06 11:30:00,
2013-08-06 04:35:00,53.1,50.2,0.00,West,279,1.0,3.5,90,0.00,,,0.00,WUHU216CR1000,2013-08-06 11:35:00,
2013-08-06 04:40:00,53.1,50.2,0.00,West,279,1.0,3.5,90,0.00,,,0.00,WUHU216CR1000,2013-08-06 11:40:00,
2013-08-06 04:45:00,53.1,50.2,0.00,West,279,1.0,3.5,90,0.00,,,0.00,WUHU216CR1000,2013-08-06 11:45:00,
2013-08-06 04:50:00,52.9,49.9,0.00,WNW,282,1.3,5.3,89,0.00,,,0.00,WUHU216CR1000,2013-08-06 11:50:00,
2013-08-06 04:55:00,52.9,49.9,0.00,WNW,282,1.3,5.3,89,0.00,,,0.00,WUHU216CR1000,2013-08-06 11:55:00,
2013-08-06 05:00:00,52.9,49.9,0.00,WNW,282,1.3,5.3,89,0.00,,,0.00,WUHU216CR1000,2013-08-06 12:00:00,
2013-08-06 05:05:00,52.7,49.8,0.00,South,176,1.3,5.3,90,0.00,,,0.00,WUHU216CR1000,2013-08-06 12:05:00,
2013-08-06 05:10:00,52.7,49.8,0.00,South,176,1.3,3.7,90,0.00,,,0.00,WUHU216CR1000,2013-08-06 12:10:00,
2013-08-06 05:15:00,52.7,49.8,0.00,South,176,1.3,3.7,90,0.00,,,0.00,WUHU216CR1000,2013-08-06 12:15:00,
2013-08-06 05:20:00,52.6,49.9,0.00,North,357,1.8,3.7,90,0.00,,,0.00,WUHU216CR1000,2013-08-06 12:20:00,
2013-08-06 05:25:00,52.6,49.9,0.00,North,357,1.8,3.7,90,0.00,,,0.00,WUHU216CR1000,2013-08-06 12:25:00,
2013-08-06 05:30:00,52.6,49.9,0.00,North,357,1.8,3.7,90,0.00,,,0.00,WUHU216CR1000,2013-08-06 12:30:00,
2013-08-06 05:35:00,52.6,49.9,0.00,North,358,0.6,3.7,91,0.00,,,0.00,WUHU216CR1000,2013-08-06 12:35:00,
2013-08-06 05:40:00,52.6,49.9,0.00,North,358,0.6,2.2,91,0.00,,,0.00,WUHU216CR1000,2013-08-06 12:40:00,
2013-08-06 05:45:00,52.6,49.9,0.00,North,358,0.6,2.2,91,0.00,,,0.00,WUHU216CR1000,2013-08-06 12:45:00,
2013-08-06 05:50:00,52.5,49.9,0.00,NNW,333,1.2,3.5,91,0.00,,,0.00,WUHU216CR1000,2013-08-06 12:50:00,
2013-08-06 05:55:00,52.5,49.9,0.00,NNW,333,1.2,3.5,91,0.00,,,0.00,WUHU216CR1000,2013-08-06 12:55:00,
2013-08-06 06:00:00,52.5,49.9,0.00,NNW,333,1.2,3.5,91,0.00,,,0.00,WUHU216CR1000,2013-08-06 13:00:00,
2013-08-06 06:05:00,52.5,49.8,0.00,WSW,253,1.4,3.7,90,0.00,,,0.00,WUHU216CR1000,2013-08-06 13:05:00,
2013-08-06 06:10:00,52.5,49.8,0.00,WSW,253,1.4,3.7,90,0.00,,,0.00,WUHU216CR1000,2013-08-06 13:10:00,
2013-08-06 06:15:00,52.5,49.8,0.00,WSW,253,1.4,3.7,90,0.00,,,0.00,WUHU216CR1000,2013-08-06 13:15:00,
2013-08-06 06:20:00,52.6,49.6,0.00,SW,219,1.2,3.7,90,0.00,,,0.00,WUHU216CR1000,2013-08-06 13:20:00,
2013-08-06 06:25:00,52.6,49.6,0.00,SW,219,1.2,3.1,90,0.00,,,0.00,WUHU216CR1000,2013-08-06 13:25:00,
2013-08-06 06:30:00,52.6,49.6,0.00,SW,219,1.2,3.1,90,0.00,,,0.00,WUHU216CR1000,2013-08-06 13:30:00,
2013-08-06 06:35:00,52.7,49.6,0.00,West,262,1.6,4.4,89,0.00,,,0.00,WUHU216CR1000,2013-08-06 13:35:00,
2013-08-06 06:40:00,52.7,49.6,0.00,West,262,1.6,4.4,89,0.00,,,0.00,WUHU216CR1000,2013-08-06 13:40:00,
2013-08-06 06:45:00,52.7,49.6,0.00,West,262,1.6,4.4,89,0.00,,,0.00,WUHU216CR1000,2013-08-06 13:45:00,
2013-08-06 06:50:00,52.9,49.4,0.00,West,265,1.8,5.0,88,0.00,,,0.00,WUHU216CR1000,2013-08-06 13:50:00,
2013-08-06 06:55:00,52.9,49.4,0.00,West,265,1.8,5.0,88,0.00,,,0.00,WUHU216CR1000,2013-08-06 13:55:00,
2013-08-06 07:00:00,52.9,49.4,0.00,West,265,1.8,5.0,88,0.00,,,0.00,WUHU216CR1000,2013-08-06 14:00:00,
2013-08-06 07:05:00,52.8,49.0,0.00,NNW,347,1.5,5.0,87,0.00,,,0.00,WUHU216CR1000,2013-08-06 14:05:00,
2013-08-06 07:10:00,52.8,49.0,0.00,NNW,347,1.5,3.3,87,0.00,,,0.00,WUHU216CR1000,2013-08-06 14:10:00,
2013-08-06 07:15:00,52.8,49.0,0.00,NNW,347,1.5,3.3,87,0.00,,,0.00,WUHU216CR1000,2013-08-06 14:15:00,
2013-08-06 07:20:00,52.8,49.1,0.00,North,355,0.4,3.3,87,0.00,,,0.00,WUHU216CR1000,2013-08-06 14:20:00,
2013-08-06 07:25:00,52.8,49.1,0.00,North,355,0.4,2.2,87,0.00,,,0.00,WUHU216CR1000,2013-08-06 14:25:00,
2013-08-06 07:30:00,52.8,49.1,0.00,North,355,0.4,2.2,87,0.00,,,0.00,WUHU216CR1000,2013-08-06 14:30:00,
2013-08-06 07:35:00,53.0,49.3,0.00,SSW,199,1.3,3.1,87,0.00,,,0.00,WUHU216CR1000,2013-08-06 14:35:00,
2013-08-06 07:40:00,53.0,49.3,0.00,SSW,199,1.3,3.1,87,0.00,,,0.00,WUHU216CR1000,2013-08-06 14:40:00,
2013-08-06 07:45:00,53.0,49.3,0.00,SSW,199,1.3,3.1,87,0.00,,,0.00,WUHU216CR1000,2013-08-06 14:45:00,
2013-08-06 07:50:00,53.2,49.6,0.00,SW,222,0.7,3.3,88,0.00,,,0.00,WUHU216CR1000,2013-08-06 14:50:00,
2013-08-06 07:55:00,53.2,49.6,0.00,SW,222,0.7,3.3,88,0.00,,,0.00,WUHU216CR1000,2013-08-06 14:55:00,
2013-08-06 08:00:00,53.2,49.6,0.00,SW,222,0.7,3.3,88,0.00,,,0.00,WUHU216CR1000,2013-08-06 15:00:00,
2013-08-06 08:05:00,53.6,49.9,0.00,SW,222,1.1,3.3,87,0.00,,,0.00,WUHU216CR1000,2013-08-06 15:05:00,
2013-08-06 08:10:00,53.6,49.9,0.00,SW,222,1.1,2.6,87,0.00,,,0.00,WUHU216CR1000,2013-08-06 15:10:00,
2013-08-06 08:15:00,53.6,49.9,0.00,SW,222,1.1,2.6,87,0.00,,,0.00,WUHU216CR1000,2013-08-06 15:15:00,
2013-08-06 08:20:00,54.2,49.9,0.00,SW,234,1.4,3.9,85,0.00,,,0.00,WUHU216CR1000,2013-08-06 15:20:00,
2013-08-06 08:25:00,54.2,49.9,0.00,SW,234,1.4,3.9,85,0.00,,,0.00,WUHU216CR1000,2013-08-06 15:25:00,
2013-08-06 08:30:00,54.2,49.9,0.00,SW,234,1.4,3.9,85,0.00,,,0.00,WUHU216CR1000,2013-08-06 15:30:00,
2013-08-06 08:35:00,54.3,49.8,0.00,South,190,1.7,4.2,85,0.00,,,0.00,WUHU216CR1000,2013-08-06 15:35:00,
2013-08-06 08:40:00,54.3,49.8,0.00,South,190,1.7,4.2,85,0.00,,,0.00,WUHU216CR1000,2013-08-06 15:40:00,
2013-08-06 08:45:00,54.3,49.8,0.00,South,190,1.7,4.2,85,0.00,,,0.00,WUHU216CR1000,2013-08-06 15:45:00,
2013-08-06 08:50:00,55.2,49.9,0.00,SSW,206,1.8,4.6,82,0.00,,,0.00,WUHU216CR1000,2013-08-06 15:50:00,
2013-08-06 08:55:00,55.2,49.9,0.00,SSW,206,1.8,4.6,82,0.00,,,0.00,WUHU216CR1000,2013-08-06 15:55:00,
2013-08-06 09:00:00,55.2,49.9,0.00,SSW,206,1.8,4.6,82,0.00,,,0.00,WUHU216CR1000,2013-08-06 16:00:00,
2013-08-06 09:05:00,55.4,49.9,0.00,SSW,197,2.2,5.7,82,0.00,,,0.00,WUHU216CR1000,2013-08-06 16:05:00,
2013-08-06 09:10:00,55.4,49.9,0.00,SSW,197,2.2,5.7,82,0.00,,,0.00,WUHU216CR1000,2013-08-06 16:10:00,
2013-08-06 09:15:00,55.4,49.9,0.00,SSW,197,2.2,5.7,82,0.00,,,0.00,WUHU216CR1000,2013-08-06 16:15:00,
2013-08-06 09:20:00,55.6,49.8,0.00,SSW,193,2.8,5.9,81,0.00,,,0.00,WUHU216CR1000,2013-08-06 16:20:00,
2013-08-06 09:25:00,55.6,49.8,0.00,SSW,193,2.8,5.9,81,0.00,,,0.00,WUHU216CR1000,2013-08-06 16:25:00,
2013-08-06 09:30:00,55.6,49.8,0.00,SSW,193,2.8,5.9,81,0.00,,,0.00,WUHU216CR1000,2013-08-06 16:30:00,
2013-08-06 09:35:00,56.0,49.9,0.00,SSW,198,2.1,5.9,80,0.00,,,0.00,WUHU216CR1000,2013-08-06 16:35:00,
2013-08-06 09:40:00,56.0,49.9,0.00,SSW,198,2.1,4.6,80,0.00,,,0.00,WUHU216CR1000,2013-08-06 16:40:00,
2013-08-06 09:45:00,56.0,49.9,0.00,SSW,198,2.1,4.6,80,0.00,,,0.00,WUHU216CR1000,2013-08-06 16:45:00,
2013-08-06 09:50:00,56.8,50.1,0.00,South,187,1.8,4.6,78,0.00,,,0.00,WUHU216CR1000,2013-08-06 16:50:00,
2013-08-06 09:55:00,56.8,50.1,0.00,South,187,1.8,3.9,78,0.00,,,0.00,WUHU216CR1000,2013-08-06 16:55:00,
2013-08-06 10:00:00,56.8,50.1,0.00,South,187,1.8,3.9,78,0.00,,,0.00,WUHU216CR1000,2013-08-06 17:00:00,
2013-08-06 10:05:00,57.5,50.3,0.00,SSW,208,1.7,4.6,77,0.00,,,0.00,WUHU216CR1000,2013-08-06 17:05:00,
2013-08-06 10:10:00,57.5,50.3,0.00,SSW,208,1.7,4.6,77,0.00,,,0.00,WUHU216CR1000,2013-08-06 17:10:00,
2013-08-06 10:15:00,57.5,50.3,0.00,SSW,208,1.7,4.6,77,0.00,,,0.00,WUHU216CR1000,2013-08-06 17:15:00,
2013-08-06 10:20:00,59.1,50.6,0.00,NNE,16,1.0,4.6,73,0.00,,,0.00,WUHU216CR1000,2013-08-06 17:20:00,
2013-08-06 10:25:00,59.1,50.6,0.00,NNE,16,1.0,3.5,73,0.00,,,0.00,WUHU216CR1000,2013-08-06 17:25:00,
2013-08-06 10:27:00,59.1,50.6,0.00,NNE,16,1.0,3.5,73,0.00,,,0.00,WUHU216CR1000,2013-08-06 17:27:00,
2013-08-06 10:32:00,60.2,50.8,0.00,NNW,328,1.8,5.5,71,0.00,,,0.00,WUHU216CR1000,2013-08-06 17:32:00,
2013-08-06 10:37:00,60.2,50.8,0.00,NNW,328,1.8,5.5,71,0.00,,,0.00,WUHU216CR1000,2013-08-06 17:37:00,
2013-08-06 10:42:00,60.2,50.8,0.00,NNW,328,1.8,5.5,71,0.00,,,0.00,WUHU216CR1000,2013-08-06 17:42:00,
2013-08-06 10:47:00,61.1,51.0,0.00,SSW,201,1.6,5.5,70,0.00,,,0.00,WUHU216CR1000,2013-08-06 17:47:00,
2013-08-06 10:52:00,61.1,51.0,0.00,SSW,201,1.6,5.5,70,0.00,,,0.00,WUHU216CR1000,2013-08-06 17:52:00,
2013-08-06 10:57:00,61.1,51.0,0.00,SSW,201,1.6,5.5,70,0.00,,,0.00,WUHU216CR1000,2013-08-06 17:57:00,
2013-08-06 11:02:00,62.1,51.3,0.00,North,349,1.9,5.5,68,0.00,,,0.00,WUHU216CR1000,2013-08-06 18:02:00,
2013-08-06 11:07:00,62.1,51.3,0.00,North,349,1.9,5.3,68,0.00,,,0.00,WUHU216CR1000,2013-08-06 18:07:00,
2013-08-06 11:12:00,62.1,51.3,0.00,North,349,1.9,5.3,68,0.00,,,0.00,WUHU216CR1000,2013-08-06 18:12:00,
2013-08-06 11:17:00,63.9,52.1,0.00,NNW,339,2.7,6.4,66,0.00,,,0.00,WUHU216CR1000,2013-08-06 18:17:00,
2013-08-06 11:22:00,63.9,52.1,0.00,NNW,339,2.7,6.4,66,0.00,,,0.00,WUHU216CR1000,2013-08-06 18:22:00,
2013-08-06 11:27:00,63.9,52.1,0.00,NNW,339,2.7,6.4,66,0.00,,,0.00,WUHU216CR1000,2013-08-06 18:27:00,
2013-08-06 11:32:00,65.7,52.5,0.00,NNE,32,1.9,6.4,62,0.00,,,0.00,WUHU216CR1000,2013-08-06 18:32:00,
2013-08-06 11:37:00,65.7,52.5,0.00,NNE,32,1.9,5.7,62,0.00,,,0.00,WUHU216CR1000,2013-08-06 18:37:00,
2013-08-06 11:42:00,65.7,52.5,0.00,NNE,32,1.9,5.7,62,0.00,,,0.00,WUHU216CR1000,2013-08-06 18:42:00,
2013-08-06 11:47:00,66.7,52.3,0.00,NNE,30,2.3,5.7,60,0.00,,,0.00,WUHU216CR1000,2013-08-06 18:47:00,
2013-08-06 11:52:00,66.7,52.3,0.00,NNE,30,2.3,5.5,60,0.00,,,0.00,WUHU216CR1000,2013-08-06 18:52:00,
2013-08-06 11:57:00,66.7,52.3,0.00,NNE,30,2.3,5.5,60,0.00,,,0.00,WUHU216CR1000,2013-08-06 18:57:00,
2013-08-06 12:02:00,67.7,52.8,0.00,NE,35,2.3,7.0,59,0.00,,,0.00,WUHU216CR1000,2013-08-06 19:02:00,
2013-08-06 12:07:00,67.7,52.8,0.00,NE,35,2.3,7.0,59,0.00,,,0.00,WUHU216CR1000,2013-08-06 19:07:00,
2013-08-06 12:12:00,67.7,52.8,0.00,NE,35,2.3,7.0,59,0.00,,,0.00,WUHU216CR1000,2013-08-06 19:12:00,
2013-08-06 12:17:00,68.8,53.1,0.00,ESE,122,1.7,7.0,57,0.00,,,0.00,WUHU216CR1000,2013-08-06 19:17:00,
2013-08-06 12:22:00,68.8,53.1,0.00,ESE,122,1.7,5.7,57,0.00,,,0.00,WUHU216CR1000,2013-08-06 19:22:00,
2013-08-06 12:27:00,68.8,53.1,0.00,ESE,122,1.7,5.7,57,0.00,,,0.00,WUHU216CR1000,2013-08-06 19:27:00,
2013-08-06 12:32:00,71.5,53.8,0.00,SW,227,3.4,9.2,54,0.00,,,0.00,WUHU216CR1000,2013-08-06 19:32:00,
2013-08-06 12:37:00,71.5,53.8,0.00,SW,227,3.4,9.2,54,0.00,,,0.00,WUHU216CR1000,2013-08-06 19:37:00,
2013-08-06 12:42:00,71.5,53.8,0.00,SW,227,3.4,9.2,54,0.00,,,0.00,WUHU216CR1000,2013-08-06 19:42:00,
2013-08-06 12:47:00,71.5,53.8,0.00,SSW,212,4.4,10.7,54,0.00,,,0.00,WUHU216CR1000,2013-08-06 19:47:00,
2013-08-06 12:52:00,71.5,53.8,0.00,SSW,212,4.4,10.7,54,0.00,,,0.00,WUHU216CR1000,2013-08-06 19:52:00,
2013-08-06 12:57:00,71.5,53.8,0.00,SSW,212,4.4,10.7,54,0.00,,,0.00,WUHU216CR1000,2013-08-06 19:57:00,
2013-08-06 13:02:00,72.1,53.8,0.00,SW,216,4.6,12.3,53,0.00,,,0.00,WUHU216CR1000,2013-08-06 20:02:00,
2013-08-06 13:07:00,72.1,53.8,0.00,SW,216,4.6,12.3,53,0.00,,,0.00,WUHU216CR1000,2013-08-06 20:07:00,
2013-08-06 13:12:00,72.1,53.8,0.00,SW,216,4.6,12.3,53,0.00,,,0.00,WUHU216CR1000,2013-08-06 20:12:00,
2013-08-06 13:17:00,71.4,53.5,0.00,SSW,203,5.1,12.3,53,0.00,,,0.00,WUHU216CR1000,2013-08-06 20:17:00,
2013-08-06 13:22:00,71.4,53.5,0.00,SSW,203,5.1,11.8,53,0.00,,,0.00,WUHU216CR1000,2013-08-06 20:22:00,
2013-08-06 13:27:00,71.4,53.5,0.00,SSW,203,5.1,11.8,53,0.00,,,0.00,WUHU216CR1000,2013-08-06 20:27:00,
2013-08-06 13:32:00,70.9,53.3,0.00,SSW,197,5.6,12.9,54,0.00,,,0.00,WUHU216CR1000,2013-08-06 20:32:00,
2013-08-06 13:37:00,70.9,53.3,0.00,SSW,197,5.6,12.9,54,0.00,,,0.00,WUHU216CR1000,2013-08-06 20:37:00,
2013-08-06 13:42:00,70.9,53.3,0.00,SSW,197,5.6,12.9,54,0.00,,,0.00,WUHU216CR1000,2013-08-06 20:42:00,
2013-08-06 13:47:00,71.5,53.6,0.00,SSW,212,4.5,13.4,53,0.00,,,0.00,WUHU216CR1000,2013-08-06 20:47:00,
2013-08-06 13:52:00,71.5,53.6,0.00,SSW,212,4.5,13.4,53,0.00,,,0.00,WUHU216CR1000,2013-08-06 20:52:00,
2013-08-06 13:57:00,71.5,53.6,0.00,SSW,212,4.5,13.4,53,0.00,,,0.00,WUHU216CR1000,2013-08-06 20:57:00,
2013-08-06 14:02:00,72.0,53.4,0.00,SSW,200,6.6,14.9,52,0.00,,,0.00,WUHU216CR1000,2013-08-06 21:02:00,
2013-08-06 14:07:00,72.0,53.4,0.00,SSW,200,6.6,14.9,52,0.00,,,0.00,WUHU216CR1000,2013-08-06 21:07:00,
2013-08-06 14:12:00,72.0,53.4,0.00,SSW,200,6.6,14.9,52,0.00,,,0.00,WUHU216CR1000,2013-08-06 21:12:00,
2013-08-06 14:17:00,71.6,53.2,0.00,SSW,201,5.1,14.9,52,0.00,,,0.00,WUHU216CR1000,2013-08-06 21:17:00,
2013-08-06 14:22:00,71.6,53.2,0.00,SSW,201,5.1,12.5,52,0.00,,,0.00,WUHU216CR1000,2013-08-06 21:22:00,
2013-08-06 14:27:00,71.6,53.2,0.00,SSW,201,5.1,12.5,52,0.00,,,0.00,WUHU216CR1000,2013-08-06 21:27:00,
2013-08-06 14:32:00,71.9,53.5,0.00,SSW,210,4.8,13.4,52,0.00,,,0.00,WUHU216CR1000,2013-08-06 21:32:00,
2013-08-06 14:37:00,71.9,53.5,0.00,SSW,210,4.8,13.4,52,0.00,,,0.00,WUHU216CR1000,2013-08-06 21:37:00,
2013-08-06 14:42:00,71.9,53.5,0.00,SSW,210,4.8,13.4,52,0.00,,,0.00,WUHU216CR1000,2013-08-06 21:42:00,
2013-08-06 14:47:00,72.1,53.3,0.00,SSW,192,7.7,16.2,52,0.00,,,0.00,WUHU216CR1000,2013-08-06 21:47:00,
2013-08-06 14:52:00,72.1,53.3,0.00,SSW,192,7.7,16.2,52,0.00,,,0.00,WUHU216CR1000,2013-08-06 21:52:00,
2013-08-06 14:57:00,72.1,53.3,0.00,SSW,192,7.7,16.2,52,0.00,,,0.00,WUHU216CR1000,2013-08-06 21:57:00,
2013-08-06 15:02:00,72.4,53.5,0.00,SSW,211,5.1,16.2,51,0.00,,,0.00,WUHU216CR1000,2013-08-06 22:02:00,
2013-08-06 15:07:00,72.4,53.5,0.00,SSW,211,5.1,15.3,51,0.00,,,0.00,WUHU216CR1000,2013-08-06 22:07:00,
2013-08-06 15:12:00,72.4,53.5,0.00,SSW,211,5.1,15.3,51,0.00,,,0.00,WUHU216CR1000,2013-08-06 22:12:00,
2013-08-06 15:17:00,70.5,53.0,0.00,SSW,213,5.2,15.3,54,0.00,,,0.00,WUHU216CR1000,2013-08-06 22:17:00,
2013-08-06 15:22:00,70.5,53.0,0.00,SSW,213,5.2,12.9,54,0.00,,,0.00,WUHU216CR1000,2013-08-06 22:22:00,
2013-08-06 15:26:00,70.5,53.0,0.00,SSW,213,5.2,12.9,54,0.00,,,0.00,WUHU216CR1000,2013-08-06 22:26:00,
2013-08-06 15:32:00,69.2,52.9,0.00,SSW,210,5.8,14.9,56,0.00,,,0.00,WUHU216CR1000,2013-08-06 22:32:00,
2013-08-06 15:36:00,69.2,52.9,0.00,SSW,210,5.8,14.9,56,0.00,,,0.00,WUHU216CR1000,2013-08-06 22:36:00,
2013-08-06 15:41:00,69.2,52.9,0.00,SSW,210,5.8,14.9,56,0.00,,,0.00,WUHU216CR1000,2013-08-06 22:41:00,
2013-08-06 15:46:00,69.2,52.9,0.00,SSW,208,4.9,14.9,56,0.00,,,0.00,WUHU216CR1000,2013-08-06 22:46:00,
2013-08-06 15:51:00,69.2,52.9,0.00,SSW,208,4.9,10.7,56,0.00,,,0.00,WUHU216CR1000,2013-08-06 22:51:00,
2013-08-06 15:56:00,69.2,52.9,0.00,SSW,208,4.9,10.7,56,0.00,,,0.00,WUHU216CR1000,2013-08-06 22:56:00,
2013-08-06 16:01:00,67.1,52.6,0.00,SW,214,4.3,12.3,60,0.00,,,0.00,WUHU216CR1000,2013-08-06 23:01:00,
2013-08-06 16:07:00,67.1,52.6,0.00,SW,214,4.3,12.3,60,0.00,,,0.00,WUHU216CR1000,2013-08-06 23:07:00,
2013-08-06 16:12:00,67.1,52.6,0.00,SW,214,4.3,12.3,60,0.00,,,0.00,WUHU216CR1000,2013-08-06 23:12:00,
2013-08-06 16:17:00,68.5,52.9,0.00,SSW,205,5.3,12.5,57,0.00,,,0.00,WUHU216CR1000,2013-08-06 23:17:00,
2013-08-06 16:22:00,68.5,52.9,0.00,SSW,205,5.3,12.5,57,0.00,,,0.00,WUHU216CR1000,2013-08-06 23:22:00,
2013-08-06 16:27:00,68.5,52.9,0.00,SSW,205,5.3,12.5,57,0.00,,,0.00,WUHU216CR1000,2013-08-06 23:27:00,
2013-08-06 16:32:00,69.6,53.4,0.00,SSW,212,5.2,12.5,57,0.00,,,0.00,WUHU216CR1000,2013-08-06 23:32:00,
2013-08-06 16:37:00,69.6,53.4,0.00,SSW,212,5.2,12.3,57,0.00,,,0.00,WUHU216CR1000,2013-08-06 23:37:00,
2013-08-06 16:42:00,69.6,53.4,0.00,SSW,212,5.2,12.3,57,0.00,,,0.00,WUHU216CR1000,2013-08-06 23:42:00,
2013-08-06 16:47:00,70.5,53.5,0.00,SW,217,5.0,12.3,55,0.00,,,0.00,WUHU216CR1000,2013-08-06 23:47:00,
2013-08-06 16:52:00,70.5,53.5,0.00,SW,217,5.0,12.3,55,0.00,,,0.00,WUHU216CR1000,2013-08-06 23:52:00,
2013-08-06 16:57:00,70.5,53.5,0.00,SW,217,5.0,12.3,55,0.00,,,0.00,WUHU216CR1000,2013-08-06 23:57:00,
2013-08-06 17:01:00,68.5,53.0,0.00,SW,220,4.4,13.6,58,0.00,,,0.00,WUHU216CR1000,2013-08-07 00:01:00,
2013-08-06 17:06:00,68.5,53.0,0.00,SW,220,4.4,13.6,58,0.00,,,0.00,WUHU216CR1000,2013-08-07 00:06:00,
2013-08-06 17:11:00,68.5,53.0,0.00,SW,220,4.4,13.6,58,0.00,,,0.00,WUHU216CR1000,2013-08-07 00:11:00,
2013-08-06 17:16:00,67.3,53.0,0.00,SW,228,5.1,15.3,60,0.00,,,0.00,WUHU216CR1000,2013-08-07 00:16:00,
2013-08-06 17:21:00,67.3,53.0,0.00,SW,228,5.1,15.3,60,0.00,,,0.00,WUHU216CR1000,2013-08-07 00:21:00,
2013-08-06 17:26:00,67.3,53.0,0.00,SW,228,5.1,15.3,60,0.00,,,0.00,WUHU216CR1000,2013-08-07 00:26:00,
2013-08-06 17:31:00,66.5,53.1,0.00,SW,221,4.6,15.3,62,0.00,,,0.00,WUHU216CR1000,2013-08-07 00:31:00,
2013-08-06 17:36:00,66.5,53.1,0.00,SW,221,4.6,14.0,62,0.00,,,0.00,WUHU216CR1000,2013-08-07 00:36:00,
2013-08-06 17:37:00,66.5,53.1,0.00,SW,221,4.6,14.0,62,0.00,,,0.00,WUHU216CR1000,2013-08-07 00:37:00,
2013-08-06 17:42:00,66.5,53.1,0.00,SW,221,4.6,14.0,62,0.00,,,0.00,WUHU216CR1000,2013-08-07 00:42:00,
2013-08-06 17:47:00,65.1,52.8,0.00,SW,228,4.6,14.0,64,0.00,,,0.00,WUHU216CR1000,2013-08-07 00:47:00,
2013-08-06 17:52:00,65.1,52.8,0.00,SW,228,4.6,14.0,64,0.00,,,0.00,WUHU216CR1000,2013-08-07 00:52:00,
2013-08-06 17:57:00,65.1,52.8,0.00,SW,228,4.6,14.0,64,0.00,,,0.00,WUHU216CR1000,2013-08-07 00:57:00,
2013-08-06 18:02:00,63.4,52.5,0.00,SW,227,3.9,14.0,68,0.00,,,0.00,WUHU216CR1000,2013-08-07 01:02:00,
2013-08-06 18:07:00,63.4,52.5,0.00,SW,227,3.9,11.6,68,0.00,,,0.00,WUHU216CR1000,2013-08-07 01:07:00,
2013-08-06 18:12:00,63.4,52.5,0.00,SW,227,3.9,11.6,68,0.00,,,0.00,WUHU216CR1000,2013-08-07 01:12:00,
2013-08-06 18:17:00,63.2,52.5,0.00,SW,234,4.1,11.6,68,0.00,,,0.00,WUHU216CR1000,2013-08-07 01:17:00,
2013-08-06 18:22:00,63.2,52.5,0.00,SW,234,4.1,11.4,68,0.00,,,0.00,WUHU216CR1000,2013-08-07 01:22:00,
2013-08-06 18:27:00,63.2,52.5,0.00,SW,234,4.1,11.4,68,0.00,,,0.00,WUHU216CR1000,2013-08-07 01:27:00,
2013-08-06 18:32:00,62.0,52.1,0.00,SW,231,4.1,11.8,70,0.00,,,0.00,WUHU216CR1000,2013-08-07 01:32:00,
2013-08-06 18:37:00,62.0,52.1,0.00,SW,231,4.1,11.8,70,0.00,,,0.00,WUHU216CR1000,2013-08-07 01:37:00,
2013-08-06 18:41:00,62.0,52.1,0.00,SW,231,4.1,11.8,70,0.00,,,0.00,WUHU216CR1000,2013-08-07 01:41:00,
2013-08-06 18:46:00,61.7,52.0,0.00,SW,234,4.5,12.5,71,0.00,,,0.00,WUHU216CR1000,2013-08-07 01:46:00,
2013-08-06 18:51:00,61.7,52.0,0.00,SW,234,4.5,12.5,71,0.00,,,0.00,WUHU216CR1000,2013-08-07 01:51:00,
2013-08-06 18:56:00,61.7,52.0,0.00,SW,234,4.5,12.5,71,0.00,,,0.00,WUHU216CR1000,2013-08-07 01:56:00,
2013-08-06 19:01:00,61.1,52.0,0.00,SW,231,3.2,12.5,72,0.00,,,0.00,WUHU216CR1000,2013-08-07 02:01:00,
2013-08-06 19:06:00,61.1,52.0,0.00,SW,231,3.2,10.5,72,0.00,,,0.00,WUHU216CR1000,2013-08-07 02:06:00,
2013-08-06 19:11:00,61.1,52.0,0.00,SW,231,3.2,10.5,72,0.00,,,0.00,WUHU216CR1000,2013-08-07 02:11:00,
2013-08-06 19:16:00,60.5,51.8,0.00,SW,215,3.3,10.5,73,0.00,,,0.00,WUHU216CR1000,2013-08-07 02:16:00,
2013-08-06 19:22:00,60.5,51.8,0.00,SW,215,3.3,7.5,73,0.00,,,0.00,WUHU216CR1000,2013-08-07 02:22:00,
2013-08-06 19:26:00,60.5,51.8,0.00,SW,215,3.3,7.5,73,0.00,,,0.00,WUHU216CR1000,2013-08-07 02:26:00,
2013-08-06 19:31:00,59.9,51.6,0.00,SW,222,3.6,9.9,74,0.00,,,0.00,WUHU216CR1000,2013-08-07 02:31:00,
2013-08-06 19:36:00,59.9,51.6,0.00,SW,222,3.6,9.9,74,0.00,,,0.00,WUHU216CR1000,2013-08-07 02:36:00,
2013-08-06 19:41:00,59.9,51.6,0.00,SW,222,3.6,9.9,74,0.00,,,0.00,WUHU216CR1000,2013-08-07 02:41:00,
2013-08-06 19:46:00,59.3,51.4,0.00,SW,233,3.0,10.5,75,0.00,,,0.00,WUHU216CR1000,2013-08-07 02:46:00,
2013-08-06 19:51:00,59.3,51.4,0.00,SW,233,3.0,10.5,75,0.00,,,0.00,WUHU216CR1000,2013-08-07 02:51:00,
2013-08-06 19:56:00,59.3,51.4,0.00,SW,233,3.0,10.5,75,0.00,,,0.00,WUHU216CR1000,2013-08-07 02:56:00,
2013-08-06 20:01:00,58.6,51.2,0.00,SW,223,2.8,10.5,76,0.00,,,0.00,WUHU216CR1000,2013-08-07 03:01:00,
2013-08-06 20:06:00,58.6,51.2,0.00,SW,223,2.8,7.9,76,0.00,,,0.00,WUHU216CR1000,2013-08-07 03:06:00,
2013-08-06 20:11:00,58.6,51.2,0.00,SW,223,2.8,7.9,76,0.00,,,0.00,WUHU216CR1000,2013-08-07 03:11:00,
2013-08-06 20:16:00,57.9,51.0,0.00,SW,226,2.3,7.9,78,0.00,,,0.00,WUHU216CR1000,2013-08-07 03:16:00,
2013-08-06 20:21:00,57.9,51.0,0.00,SW,226,2.3,6.4,78,0.00,,,0.00,WUHU216CR1000,2013-08-07 03:21:00,
2013-08-06 20:26:00,57.9,51.0,0.00,SW,226,2.3,6.4,78,0.00,,,0.00,WUHU216CR1000,2013-08-07 03:26:00,
2013-08-06 20:31:00,57.4,50.9,0.00,SW,218,2.1,8.1,79,0.00,,,0.00,WUHU216CR1000,2013-08-07 03:31:00,
2013-08-06 20:36:00,57.4,50.9,0.00,SW,218,2.1,8.1,79,0.00,,,0.00,WUHU216CR1000,2013-08-07 03:36:00,
2013-08-06 20:41:00,57.4,50.9,0.00,SW,218,2.1,8.1,79,0.00,,,0.00,WUHU216CR1000,2013-08-07 03:41:00,
2013-08-06 20:46:00,57.0,50.8,0.00,SW,220,1.8,8.1,80,0.00,,,0.00,WUHU216CR1000,2013-08-07 03:46:00,
2013-08-06 20:51:00,57.0,50.8,0.00,SW,220,1.8,7.0,80,0.00,,,0.00,WUHU216CR1000,2013-08-07 03:51:00,
2013-08-06 20:52:00,57.0,50.8,0.00,SW,220,1.8,7.0,80,0.00,,,0.00,WUHU216CR1000,2013-08-07 03:52:00,
2013-08-06 20:57:00,57.0,50.8,0.00,SW,220,1.8,7.0,80,0.00,,,0.00,WUHU216CR1000,2013-08-07 03:57:00,
2013-08-06 21:01:00,57.0,50.8,0.00,SW,220,1.8,7.0,80,0.00,,,0.00,WUHU216CR1000,2013-08-07 04:01:00,
2013-08-06 21:06:00,56.7,50.9,0.00,SW,214,1.4,6.4,81,0.00,,,0.00,WUHU216CR1000,2013-08-07 04:06:00,
2013-08-06 21:11:00,56.7,50.9,0.00,SW,214,1.4,6.4,81,0.00,,,0.00,WUHU216CR1000,2013-08-07 04:11:00,
2013-08-06 21:16:00,56.5,51.0,0.00,SW,224,2.0,6.6,82,0.00,,,0.00,WUHU216CR1000,2013-08-07 04:16:00,
2013-08-06 21:21:00,56.5,51.0,0.00,SW,224,2.0,6.6,82,0.00,,,0.00,WUHU216CR1000,2013-08-07 04:21:00,
2013-08-06 21:26:00,56.5,51.0,0.00,SW,224,2.0,6.6,82,0.00,,,0.00,WUHU216CR1000,2013-08-07 04:26:00,
2013-08-06 21:31:00,56.9,51.4,0.00,WSW,239,1.9,6.6,82,0.00,,,0.00,WUHU216CR1000,2013-08-07 04:31:00,
2013-08-06 21:36:00,56.9,51.4,0.00,WSW,239,1.9,5.7,82,0.00,,,0.00,WUHU216CR1000,2013-08-07 04:36:00,
2013-08-06 21:41:00,56.9,51.4,0.00,WSW,239,1.9,5.7,82,0.00,,,0.00,WUHU216CR1000,2013-08-07 04:41:00,
2013-08-06 21:46:00,56.9,51.4,0.00,WSW,239,1.9,5.7,82,0.00,,,0.00,WUHU216CR1000,2013-08-07 04:46:00,
2013-08-06 21:51:00,57.4,51.7,0.00,WSW,256,3.8,9.6,81,0.00,,,0.00,WUHU216CR1000,2013-08-07 04:51:00,
2013-08-06 21:56:00,57.4,51.7,0.00,WSW,256,3.8,9.6,81,0.00,,,0.00,WUHU216CR1000,2013-08-07 04:56:00,
2013-08-06 22:01:00,57.8,52.0,0.00,WSW,252,2.3,9.6,81,0.00,,,0.00,WUHU216CR1000,2013-08-07 05:01:00,
2013-08-06 22:06:00,57.8,52.0,0.00,WSW,252,2.3,8.8,81,0.00,,,0.00,WUHU216CR1000,2013-08-07 05:06:00,
2013-08-06 22:11:00,57.8,52.0,0.00,WSW,252,2.3,8.8,81,0.00,,,0.00,WUHU216CR1000,2013-08-07 05:11:00,
2013-08-06 22:16:00,58.0,52.0,0.00,West,262,2.7,8.8,80,0.00,,,0.00,WUHU216CR1000,2013-08-07 05:16:00,
2013-08-06 22:21:00,58.0,52.0,0.00,West,262,2.7,8.8,80,0.00,,,0.00,WUHU216CR1000,2013-08-07 05:21:00,
2013-08-06 22:26:00,58.0,52.0,0.00,West,262,2.7,7.2,80,0.00,,,0.00,WUHU216CR1000,2013-08-07 05:26:00,
2013-08-06 22:31:00,58.0,52.0,0.00,West,262,2.7,7.2,80,0.00,,,0.00,WUHU216CR1000,2013-08-07 05:31:00,
2013-08-06 22:36:00,57.9,51.9,0.00,WSW,253,3.7,8.6,80,0.00,,,0.00,WUHU216CR1000,2013-08-07 05:36:00,
2013-08-06 22:41:00,57.9,51.9,0.00,WSW,253,3.7,8.6,80,0.00,,,0.00,WUHU216CR1000,2013-08-07 05:41:00,
2013-08-06 22:46:00,57.9,51.9,0.00,WSW,253,3.7,8.6,80,0.00,,,0.00,WUHU216CR1000,2013-08-07 05:46:00,
2013-08-06 22:51:00,57.9,52.0,0.00,WSW,244,3.0,8.6,81,0.00,,,0.00,WUHU216CR1000,2013-08-07 05:51:00,
2013-08-06 22:56:00,57.9,52.0,0.00,WSW,244,3.0,7.2,81,0.00,,,0.00,WUHU216CR1000,2013-08-07 05:56:00,
2013-08-06 23:01:00,57.9,52.0,0.00,WSW,244,3.0,7.2,81,0.00,,,0.00,WUHU216CR1000,2013-08-07 06:01:00,
2013-08-06 23:06:00,57.8,52.0,0.00,WSW,243,3.3,8.8,81,0.00,,,0.00,WUHU216CR1000,2013-08-07 06:06:00,
2013-08-06 23:11:00,57.8,52.0,0.00,WSW,243,3.3,8.8,81,0.00,,,0.00,WUHU216CR1000,2013-08-07 06:11:00,
2013-08-06 23:16:00,57.8,52.0,0.00,WSW,243,3.3,8.8,81,0.00,,,0.00,WUHU216CR1000,2013-08-07 06:16:00,
2013-08-06 23:21:00,57.6,52.0,0.00,West,265,3.8,8.8,81,0.00,,,0.00,WUHU216CR1000,2013-08-07 06:21:00,
2013-08-06 23:26:00,57.6,52.0,0.00,West,265,3.8,8.8,81,0.00,,,0.00,WUHU216CR1000,2013-08-07 06:26:00,
2013-08-06 23:31:00,57.6,52.0,0.00,West,265,3.8,8.8,81,0.00,,,0.00,WUHU216CR1000,2013-08-07 06:31:00,
2013-08-06 23:36:00,57.7,52.0,0.00,WSW,251,2.6,8.8,81,0.00,,,0.00,WUHU216CR1000,2013-08-07 06:36:00,
2013-08-06 23:41:00,57.7,52.0,0.00,WSW,251,2.6,8.6,81,0.00,,,0.00,WUHU216CR1000,2013-08-07 06:41:00,
2013-08-06 23:46:00,57.7,52.0,0.00,WSW,251,2.6,8.6,81,0.00,,,0.00,WUHU216CR1000,2013-08-07 06:46:00,
2013-08-06 23:51:00,57.6,52.0,0.00,West,280,3.7,8.6,82,0.00,,,0.00,WUHU216CR1000,2013-08-07 06:51:00,
2013-08-06 23:56:00,57.6,52.0,0.00,West,280,3.7,8.6,82,0.00,,,0.00,WUHU216CR1000,2013-08-07 06:56:00,